Neder Vindinge, Denmark
Current Conditions -  °F | °C
As of 11:20 PM on Monday 26 Jan 2015 (Local Time) from EKRK Reporting Station
Few Clouds Few Clouds  
Wind Chill: -3°   Ceiling: Unl
Heat Index:   Visibility: 6mi
Dew Point:   Wind: 13mph
Humidity: 100%   Direction: 300°WNW
Pressure: 29.71"   Gusts: NA
Location:  55.03°N, 11.88°E
Report Text: EKRK 262220Z AUTO 30011KT 9999NDV FEW160/// 02/02 Q1006
Loading
Personal Weather Stations






























Interactive Weather Map New forecast layout! Learn more

10-Day Weather Forecast

Advertisements
Track Severe Weather on mobile